Etusivu
METAR-TAF:

METAR-TAF

Lentoasemat :

Nouakchott, Mauritania

Nouakchottin kansainvälinen lentoasema

Leveyspiiri: 18-18-36N, Pituuspiiri: 015-58-11W, korkeus merenpinnasta: 3 m

Tämänhetkinen sää

Tämä raportti tehtiin 26 minuuttia sitten, kello 09.30 UTC
Tuuli 7 kn pohjoisesta/koillisesta
Lämpötila 29°C
Kosteus 19%
Ilmanpaine 1014 hPa
Näkyvyys: 8000 m

METAR: GQNO 220930Z 03007KT 8000 NSC 29/03 Q1014 NOSIG

Aika: 09:56 (09:56 UTC)

Sääennuste

Tämä raportti tehtiin 4 tuntia ja 56 minuuttia sitten, kello 05.00 UTC
Ennuste voimassa 22. päivästä klo 06 UTC - 23. päivään klo 12 UTC
Tuuli 10 kn pohjoisesta/koillisesta
Näkyvyys: 7000 m
Tulossa
22. päivästä klo 07 UTC - 22. päivään klo 11 UTC
Tuuli 12 kn idästä
Tulossa
22. päivästä klo 15 UTC - 22. päivään klo 17 UTC
Tuuli 10 kn pohjoisen/luoteesta

TAF: GQNO 220500Z 2206/2312 02010KT 7000 NSC BECMG 2207/2211 10012KT BECMG 2215/2217 34010KT

Säähavainnot ja -ennusteet yli 4000 lentoasemalta (METAR- ja TAF-raportit).

Käytössä olevat sääasemat on merkitty karttaan keltaisilla ja punaisilla pisteillä.

Aseta hiiri pisteen päälle nähdäksesi sääaseman nimen.

Klikkaa sitten nähdäksesi säähavainnot ja -ennusteet.

Kartan vaihtaminen: klikkaa mustalla rastilla varustettuja vihreitä pisteitä, niin voit zoomata sisään; viivalla varustettua vihreää pistettä, niin voit zoomata ulos tai vihreitä nuolia, niin pääset viereisille kartoille.


METAR-TAF: